aviador You're here:

CYCS Decoded Metar

CHESTERFIELD INLET in NU, CANADA
Report Time2017-07-24 14:00:00
UTC Time2017-07-24 14:48:41
Flight Rules vfr VFR
Wind310° at 22 kt
W.Decomp.*RWY 30: 20.7 kt HW 7.5 kt RCW
W.Rank310° ranks 2
Current wind is above 310° avg. (14.8)
Visibility9999 m
Phenomena:N/A
Clouds:Few 009 Hf
Few 010 Hf
Scattered 250 Hf
Expected CloudBase > 2,000 ft AGL from Temp-Dew spread
CeilingNone
Temp11°C (ISA -4)
Dew Point06°C (72% RH)
AAT2.2°C
QNH1006 hPa
Density Alt-69 ft
Elevation36 ft
Report Wrong Elevation
Raw Report
CYCS 241400Z 31022KT 15SM FEW009 FEW010 SCT250 11/06 A2972 RMK
SF1SC1CI3 SF TR SC TR 15.4/8.2/0.6/NIL SLP068=

Extra information for CYCS:More info

Metar Taf Metar & Taf Last 4 Metars F.Rules Stats Wind Profile Meteogram Temp Stats Airport Information Weather charts Add Link Nearby VenuesMetar ALERT Operation Metar Decoded Social comments